KCCY

Details ICAO KCCY
Name CHARLES CITY MUNI
Region United States
Timezone America/Chicago (UTC-6.0)
Plans Departing 4
Arriving 2
Stats Elevation 1,125 ft / 343 m (AMSL)
Location 43.072169° -92.610792°
Runways 3
Magnetic Variation 0.118° W
Sunrise 2017-12-12 13:34:23 UTC / 2017-12-12 07:34:23 Local
Sunset 2017-12-12 22:37:04 UTC / 2017-12-12 16:37:04 Local
Advertisement - Login to hide

Runways

ID Width Length Bearing (true) Bearing (mag) Surface Threshold Offset Overrun Length
04 160 ft / 49 m 2,534 ft / 772 m 44.87° 44.99° Grass 0 ft / 0 m 0 ft / 0 m
12 75 ft / 23 m 3,996 ft / 1,218 m 125.43° 125.55° Concrete 0 ft / 0 m 0 ft / 0 m
17 170 ft / 52 m 1,690 ft / 515 m 180.00° 180.12° Grass 0 ft / 0 m 0 ft / 0 m
22 160 ft / 49 m 2,534 ft / 772 m 224.87° 224.99° Grass 0 ft / 0 m 0 ft / 0 m
30 75 ft / 23 m 3,996 ft / 1,218 m 305.43° 305.55° Concrete 0 ft / 0 m 0 ft / 0 m
35 170 ft / 52 m 1,690 ft / 515 m 0.00° 0.12° Grass 0 ft / 0 m 0 ft / 0 m

Map

Weather


0- 5 10 15 20 25 30 35+ Temperature / ° C

Clouds and Precipitation
Forecast for 2017-12-12 12:00 UTC. Updated 2 hours ago

Ground ~20,000 ft ~40,000 ft Winds

METAR

KCCY 121235Z AUTO 31010KT 10SM CLR M12/M14 A3020 RMK AO2

TAF

Not found

Frequencies

Recorded 125.52 MHz AWOS 3
Approach 118.90 MHz WATERLOO APP/DEP
Unicom 122.80 MHz CTAF/UNICOM
Warning: Do not use this data for real-world aviation or navigation. No guarantee of current accuracy is given.